sensor_id;sensor_type;location;lat;lon;timestamp;P1;durP1;ratioP1;P2;durP2;ratioP2
74344;SDS011;62776;50.518;6.732;2022-08-19T00:00:41;18.67;;;17.17;;
74344;SDS011;62776;50.518;6.732;2022-08-19T00:03:28;19.27;;;17.58;;
74344;SDS011;62776;50.518;6.732;2022-08-19T00:06:14;19.92;;;18.23;;
74344;SDS011;62776;50.518;6.732;2022-08-19T00:09:02;19.80;;;18.15;;
74344;SDS011;62776;50.518;6.732;2022-08-19T00:11:51;21.02;;;19.20;;
74344;SDS011;62776;50.518;6.732;2022-08-19T00:14:40;18.63;;;16.98;;
74344;SDS011;62776;50.518;6.732;2022-08-19T00:17:27;19.00;;;17.20;;
74344;SDS011;62776;50.518;6.732;2022-08-19T00:20:14;21.85;;;19.95;;
74344;SDS011;62776;50.518;6.732;2022-08-19T00:23:03;21.73;;;19.73;;
74344;SDS011;62776;50.518;6.732;2022-08-19T00:25:49;21.40;;;19.50;;
74344;SDS011;62776;50.518;6.732;2022-08-19T00:28:36;23.38;;;21.05;;
74344;SDS011;62776;50.518;6.732;2022-08-19T00:31:22;23.02;;;21.00;;
74344;SDS011;62776;50.518;6.732;2022-08-19T00:34:10;20.52;;;18.80;;
74344;SDS011;62776;50.518;6.732;2022-08-19T00:36:58;26.05;;;23.60;;
74344;SDS011;62776;50.518;6.732;2022-08-19T00:39:44;25.50;;;23.20;;
74344;SDS011;62776;50.518;6.732;2022-08-19T00:42:30;21.85;;;20.05;;
74344;SDS011;62776;50.518;6.732;2022-08-19T00:45:23;22.02;;;20.02;;
74344;SDS011;62776;50.518;6.732;2022-08-19T00:48:11;20.35;;;18.33;;
74344;SDS011;62776;50.518;6.732;2022-08-19T00:50:57;26.40;;;23.80;;
74344;SDS011;62776;50.518;6.732;2022-08-19T00:53:44;19.67;;;17.88;;
74344;SDS011;62776;50.518;6.732;2022-08-19T00:56:30;20.55;;;18.50;;
74344;SDS011;62776;50.518;6.732;2022-08-19T00:59:17;24.52;;;22.10;;
74344;SDS011;62776;50.518;6.732;2022-08-19T01:02:04;25.85;;;23.52;;
74344;SDS011;62776;50.518;6.732;2022-08-19T01:04:51;22.52;;;20.42;;
74344;SDS011;62776;50.518;6.732;2022-08-19T01:07:37;27.08;;;24.33;;
74344;SDS011;62776;50.518;6.732;2022-08-19T01:10:27;19.65;;;17.85;;
74344;SDS011;62776;50.518;6.732;2022-08-19T01:13:17;28.58;;;25.88;;
74344;SDS011;62776;50.518;6.732;2022-08-19T01:16:07;21.88;;;19.88;;
74344;SDS011;62776;50.518;6.732;2022-08-19T01:18:55;21.75;;;19.80;;
74344;SDS011;62776;50.518;6.732;2022-08-19T01:21:43;25.73;;;23.13;;
74344;SDS011;62776;50.518;6.732;2022-08-19T01:24:47;21.33;;;19.58;;
74344;SDS011;62776;50.518;6.732;2022-08-19T01:27:40;24.05;;;21.95;;
74344;SDS011;62776;50.518;6.732;2022-08-19T01:30:30;21.60;;;19.75;;
74344;SDS011;62776;50.518;6.732;2022-08-19T01:33:19;24.50;;;22.17;;
74344;SDS011;62776;50.518;6.732;2022-08-19T01:36:07;24.55;;;22.38;;
74344;SDS011;62776;50.518;6.732;2022-08-19T01:38:56;20.15;;;18.35;;
74344;SDS011;62776;50.518;6.732;2022-08-19T01:41:43;24.33;;;21.92;;
74344;SDS011;62776;50.518;6.732;2022-08-19T01:44:30;22.83;;;20.80;;
74344;SDS011;62776;50.518;6.732;2022-08-19T01:47:16;26.35;;;24.00;;
74344;SDS011;62776;50.518;6.732;2022-08-19T01:50:03;23.77;;;21.60;;
74344;SDS011;62776;50.518;6.732;2022-08-19T01:52:51;21.45;;;19.42;;
74344;SDS011;62776;50.518;6.732;2022-08-19T01:55:38;28.30;;;25.42;;
74344;SDS011;62776;50.518;6.732;2022-08-19T01:58:29;23.05;;;21.00;;
74344;SDS011;62776;50.518;6.732;2022-08-19T02:01:23;23.90;;;22.00;;
74344;SDS011;62776;50.518;6.732;2022-08-19T02:04:09;25.02;;;22.77;;
74344;SDS011;62776;50.518;6.732;2022-08-19T02:06:57;24.63;;;22.27;;
74344;SDS011;62776;50.518;6.732;2022-08-19T02:09:43;26.80;;;24.23;;
74344;SDS011;62776;50.518;6.732;2022-08-19T02:12:29;28.17;;;25.67;;
74344;SDS011;62776;50.518;6.732;2022-08-19T02:15:15;31.00;;;28.02;;
74344;SDS011;62776;50.518;6.732;2022-08-19T02:18:04;22.52;;;20.63;;
74344;SDS011;62776;50.518;6.732;2022-08-19T02:20:53;25.00;;;22.90;;
74344;SDS011;62776;50.518;6.732;2022-08-19T02:23:40;25.45;;;23.15;;
74344;SDS011;62776;50.518;6.732;2022-08-19T02:26:26;27.02;;;24.40;;
74344;SDS011;62776;50.518;6.732;2022-08-19T02:29:13;25.67;;;23.38;;
74344;SDS011;62776;50.518;6.732;2022-08-19T02:31:59;29.90;;;27.20;;
74344;SDS011;62776;50.518;6.732;2022-08-19T02:34:45;25.27;;;23.00;;
74344;SDS011;62776;50.518;6.732;2022-08-19T02:37:32;29.30;;;26.55;;
74344;SDS011;62776;50.518;6.732;2022-08-19T02:40:37;21.98;;;19.88;;
74344;SDS011;62776;50.518;6.732;2022-08-19T02:43:25;22.60;;;20.50;;
74344;SDS011;62776;50.518;6.732;2022-08-19T02:46:18;28.77;;;25.95;;
74344;SDS011;62776;50.518;6.732;2022-08-19T02:49:06;32.50;;;29.38;;
74344;SDS011;62776;50.518;6.732;2022-08-19T02:51:52;37.05;;;33.55;;
74344;SDS011;62776;50.518;6.732;2022-08-19T02:54:39;35.38;;;32.22;;
74344;SDS011;62776;50.518;6.732;2022-08-19T02:57:25;28.20;;;25.50;;
74344;SDS011;62776;50.518;6.732;2022-08-19T03:00:12;27.00;;;24.60;;
74344;SDS011;62776;50.518;6.732;2022-08-19T03:02:58;26.30;;;23.83;;
74344;SDS011;62776;50.518;6.732;2022-08-19T03:05:45;27.17;;;24.73;;
74344;SDS011;62776;50.518;6.732;2022-08-19T03:08:32;32.15;;;29.15;;
74344;SDS011;62776;50.518;6.732;2022-08-19T03:11:19;34.17;;;31.10;;
74344;SDS011;62776;50.518;6.732;2022-08-19T03:14:08;33.53;;;30.38;;
74344;SDS011;62776;50.518;6.732;2022-08-19T03:16:55;37.42;;;33.72;;
74344;SDS011;62776;50.518;6.732;2022-08-19T03:19:41;39.50;;;35.58;;
74344;SDS011;62776;50.518;6.732;2022-08-19T03:22:28;36.55;;;33.10;;
74344;SDS011;62776;50.518;6.732;2022-08-19T03:25:14;32.97;;;29.98;;
74344;SDS011;62776;50.518;6.732;2022-08-19T03:28:01;32.83;;;29.83;;
74344;SDS011;62776;50.518;6.732;2022-08-19T03:31:04;39.70;;;36.00;;
74344;SDS011;62776;50.518;6.732;2022-08-19T03:34:01;34.78;;;31.48;;
74344;SDS011;62776;50.518;6.732;2022-08-19T03:36:47;41.75;;;37.38;;
74344;SDS011;62776;50.518;6.732;2022-08-19T03:39:33;32.40;;;29.27;;
74344;SDS011;62776;50.518;6.732;2022-08-19T03:42:21;43.50;;;39.30;;
74344;SDS011;62776;50.518;6.732;2022-08-19T03:45:08;31.23;;;28.45;;
74344;SDS011;62776;50.518;6.732;2022-08-19T03:47:55;40.10;;;36.50;;
74344;SDS011;62776;50.518;6.732;2022-08-19T03:50:41;33.85;;;30.52;;
74344;SDS011;62776;50.518;6.732;2022-08-19T03:53:28;34.38;;;31.20;;
74344;SDS011;62776;50.518;6.732;2022-08-19T03:56:15;35.20;;;31.92;;
74344;SDS011;62776;50.518;6.732;2022-08-19T03:59:01;43.85;;;39.72;;
74344;SDS011;62776;50.518;6.732;2022-08-19T04:01:49;34.92;;;31.63;;
74344;SDS011;62776;50.518;6.732;2022-08-19T04:04:39;39.35;;;35.70;;
74344;SDS011;62776;50.518;6.732;2022-08-19T04:07:27;46.23;;;41.87;;
74344;SDS011;62776;50.518;6.732;2022-08-19T04:10:14;38.67;;;34.95;;
74344;SDS011;62776;50.518;6.732;2022-08-19T04:13:00;33.35;;;30.27;;
74344;SDS011;62776;50.518;6.732;2022-08-19T04:15:46;35.05;;;31.73;;
74344;SDS011;62776;50.518;6.732;2022-08-19T04:18:35;36.20;;;32.80;;
74344;SDS011;62776;50.518;6.732;2022-08-19T04:21:24;33.88;;;30.63;;
74344;SDS011;62776;50.518;6.732;2022-08-19T04:24:11;35.58;;;32.17;;
74344;SDS011;62776;50.518;6.732;2022-08-19T04:26:59;37.28;;;33.92;;
74344;SDS011;62776;50.518;6.732;2022-08-19T04:29:47;42.35;;;38.28;;
74344;SDS011;62776;50.518;6.732;2022-08-19T04:32:33;43.67;;;39.22;;
74344;SDS011;62776;50.518;6.732;2022-08-19T04:35:20;33.42;;;30.17;;
74344;SDS011;62776;50.518;6.732;2022-08-19T04:38:06;36.80;;;33.50;;
74344;SDS011;62776;50.518;6.732;2022-08-19T04:40:53;32.47;;;29.52;;
74344;SDS011;62776;50.518;6.732;2022-08-19T04:43:58;40.80;;;36.78;;
74344;SDS011;62776;50.518;6.732;2022-08-19T04:46:44;29.45;;;26.67;;
74344;SDS011;62776;50.518;6.732;2022-08-19T04:49:32;43.63;;;39.22;;
74344;SDS011;62776;50.518;6.732;2022-08-19T04:52:19;43.78;;;39.42;;
74344;SDS011;62776;50.518;6.732;2022-08-19T04:55:05;38.47;;;34.88;;
74344;SDS011;62776;50.518;6.732;2022-08-19T04:57:51;42.60;;;38.65;;
74344;SDS011;62776;50.518;6.732;2022-08-19T05:00:39;42.08;;;38.15;;
74344;SDS011;62776;50.518;6.732;2022-08-19T05:03:25;44.40;;;39.85;;
74344;SDS011;62776;50.518;6.732;2022-08-19T05:06:12;39.38;;;35.47;;
74344;SDS011;62776;50.518;6.732;2022-08-19T05:09:00;45.22;;;40.42;;
74344;SDS011;62776;50.518;6.732;2022-08-19T05:11:50;42.75;;;38.75;;
74344;SDS011;62776;50.518;6.732;2022-08-19T05:14:37;39.70;;;35.83;;
74344;SDS011;62776;50.518;6.732;2022-08-19T05:17:24;52.58;;;47.47;;
74344;SDS011;62776;50.518;6.732;2022-08-19T05:20:11;40.78;;;36.63;;
74344;SDS011;62776;50.518;6.732;2022-08-19T05:23:20;42.83;;;38.53;;
74344;SDS011;62776;50.518;6.732;2022-08-19T05:26:06;49.50;;;44.55;;
74344;SDS011;62776;50.518;6.732;2022-08-19T05:28:54;40.38;;;36.50;;
74344;SDS011;62776;50.518;6.732;2022-08-19T05:31:41;40.30;;;36.42;;
74344;SDS011;62776;50.518;6.732;2022-08-19T05:34:27;42.33;;;38.13;;
74344;SDS011;62776;50.518;6.732;2022-08-19T05:37:13;42.90;;;38.58;;
74344;SDS011;62776;50.518;6.732;2022-08-19T05:39:59;46.20;;;41.42;;
74344;SDS011;62776;50.518;6.732;2022-08-19T05:42:46;40.47;;;36.45;;
74344;SDS011;62776;50.518;6.732;2022-08-19T05:45:32;37.95;;;34.33;;
74344;SDS011;62776;50.518;6.732;2022-08-19T05:48:23;47.80;;;42.70;;
74344;SDS011;62776;50.518;6.732;2022-08-19T05:51:09;43.33;;;38.83;;
74344;SDS011;62776;50.518;6.732;2022-08-19T05:53:56;43.70;;;39.33;;
74344;SDS011;62776;50.518;6.732;2022-08-19T05:56:42;45.88;;;41.20;;
74344;SDS011;62776;50.518;6.732;2022-08-19T05:59:32;47.80;;;42.60;;
74344;SDS011;62776;50.518;6.732;2022-08-19T06:02:20;48.20;;;43.30;;
74344;SDS011;62776;50.518;6.732;2022-08-19T06:05:06;56.03;;;50.00;;
74344;SDS011;62776;50.518;6.732;2022-08-19T06:07:53;55.30;;;49.33;;
74344;SDS011;62776;50.518;6.732;2022-08-19T06:10:39;63.85;;;54.15;;
74344;SDS011;62776;50.518;6.732;2022-08-19T06:13:26;62.30;;;53.60;;
74344;SDS011;62776;50.518;6.732;2022-08-19T06:16:13;72.15;;;55.88;;
74344;SDS011;62776;50.518;6.732;2022-08-19T06:19:08;62.60;;;52.03;;
74344;SDS011;62776;50.518;6.732;2022-08-19T06:21:58;63.80;;;49.75;;
74344;SDS011;62776;50.518;6.732;2022-08-19T06:24:45;68.07;;;53.88;;
74344;SDS011;62776;50.518;6.732;2022-08-19T06:27:32;64.30;;;53.30;;
74344;SDS011;62776;50.518;6.732;2022-08-19T06:30:18;68.13;;;55.15;;
74344;SDS011;62776;50.518;6.732;2022-08-19T06:33:04;67.88;;;53.83;;
74344;SDS011;62776;50.518;6.732;2022-08-19T06:35:50;68.80;;;52.85;;
74344;SDS011;62776;50.518;6.732;2022-08-19T06:38:37;64.57;;;51.20;;
74344;SDS011;62776;50.518;6.732;2022-08-19T06:41:26;64.10;;;50.17;;
74344;SDS011;62776;50.518;6.732;2022-08-19T06:44:13;67.10;;;50.20;;
74344;SDS011;62776;50.518;6.732;2022-08-19T06:47:01;61.00;;;48.25;;
74344;SDS011;62776;50.518;6.732;2022-08-19T06:49:49;58.88;;;46.22;;
74344;SDS011;62776;50.518;6.732;2022-08-19T06:52:35;59.35;;;46.20;;
74344;SDS011;62776;50.518;6.732;2022-08-19T06:55:21;55.10;;;43.60;;
74344;SDS011;62776;50.518;6.732;2022-08-19T06:58:07;52.22;;;40.60;;
74344;SDS011;62776;50.518;6.732;2022-08-19T07:00:54;55.17;;;42.13;;
74344;SDS011;62776;50.518;6.732;2022-08-19T07:03:40;53.55;;;42.47;;
74344;SDS011;62776;50.518;6.732;2022-08-19T07:06:26;54.08;;;41.97;;
74344;SDS011;62776;50.518;6.732;2022-08-19T07:09:13;46.03;;;37.05;;
74344;SDS011;62776;50.518;6.732;2022-08-19T07:12:03;44.17;;;37.13;;
74344;SDS011;62776;50.518;6.732;2022-08-19T07:14:51;47.35;;;37.42;;
74344;SDS011;62776;50.518;6.732;2022-08-19T07:17:38;42.08;;;34.53;;
74344;SDS011;62776;50.518;6.732;2022-08-19T07:20:25;38.35;;;33.38;;
74344;SDS011;62776;50.518;6.732;2022-08-19T07:23:11;35.08;;;30.48;;
74344;SDS011;62776;50.518;6.732;2022-08-19T07:25:58;36.85;;;29.48;;
74344;SDS011;62776;50.518;6.732;2022-08-19T07:28:55;34.40;;;28.63;;
74344;SDS011;62776;50.518;6.732;2022-08-19T07:31:42;31.27;;;27.55;;
74344;SDS011;62776;50.518;6.732;2022-08-19T07:34:29;32.95;;;28.75;;
74344;SDS011;62776;50.518;6.732;2022-08-19T07:37:15;36.13;;;30.35;;
74344;SDS011;62776;50.518;6.732;2022-08-19T07:40:03;29.73;;;26.40;;
74344;SDS011;62776;50.518;6.732;2022-08-19T07:42:50;29.75;;;25.70;;
74344;SDS011;62776;50.518;6.732;2022-08-19T07:45:37;29.75;;;25.33;;
74344;SDS011;62776;50.518;6.732;2022-08-19T07:48:26;29.63;;;24.73;;
74344;SDS011;62776;50.518;6.732;2022-08-19T07:51:15;25.92;;;22.75;;
74344;SDS011;62776;50.518;6.732;2022-08-19T07:54:03;33.53;;;26.98;;
74344;SDS011;62776;50.518;6.732;2022-08-19T07:56:49;29.75;;;26.25;;
74344;SDS011;62776;50.518;6.732;2022-08-19T07:59:35;30.23;;;24.90;;
74344;SDS011;62776;50.518;6.732;2022-08-19T08:02:22;26.23;;;21.88;;
74344;SDS011;62776;50.518;6.732;2022-08-19T08:05:08;23.80;;;19.77;;
74344;SDS011;62776;50.518;6.732;2022-08-19T08:08:13;22.23;;;19.58;;
74344;SDS011;62776;50.518;6.732;2022-08-19T08:11:19;23.20;;;20.70;;
74344;SDS011;62776;50.518;6.732;2022-08-19T08:14:06;20.67;;;18.13;;
74344;SDS011;62776;50.518;6.732;2022-08-19T08:16:53;22.00;;;19.67;;
74344;SDS011;62776;50.518;6.732;2022-08-19T08:19:40;21.58;;;19.20;;
74344;SDS011;62776;50.518;6.732;2022-08-19T08:22:27;31.23;;;23.02;;
74344;SDS011;62776;50.518;6.732;2022-08-19T08:25:32;27.17;;;24.27;;
74344;SDS011;62776;50.518;6.732;2022-08-19T08:28:20;25.00;;;22.40;;
74344;SDS011;62776;50.518;6.732;2022-08-19T08:31:06;24.25;;;21.67;;
74344;SDS011;62776;50.518;6.732;2022-08-19T08:33:54;19.00;;;17.10;;
74344;SDS011;62776;50.518;6.732;2022-08-19T08:36:42;19.10;;;17.05;;
74344;SDS011;62776;50.518;6.732;2022-08-19T08:39:30;22.73;;;19.50;;
74344;SDS011;62776;50.518;6.732;2022-08-19T08:42:21;20.90;;;18.70;;
74344;SDS011;62776;50.518;6.732;2022-08-19T08:45:17;21.40;;;17.75;;
74344;SDS011;62776;50.518;6.732;2022-08-19T08:48:16;22.55;;;20.15;;
74344;SDS011;62776;50.518;6.732;2022-08-19T08:51:29;22.23;;;19.63;;
74344;SDS011;62776;50.518;6.732;2022-08-19T08:54:30;21.95;;;19.85;;
74344;SDS011;62776;50.518;6.732;2022-08-19T08:57:32;19.45;;;17.48;;
74344;SDS011;62776;50.518;6.732;2022-08-19T09:00:30;20.85;;;18.65;;
74344;SDS011;62776;50.518;6.732;2022-08-19T09:03:26;19.67;;;17.77;;
74344;SDS011;62776;50.518;6.732;2022-08-19T09:06:35;20.27;;;18.05;;
74344;SDS011;62776;50.518;6.732;2022-08-19T09:09:35;28.70;;;20.42;;
74344;SDS011;62776;50.518;6.732;2022-08-19T09:15:43;19.50;;;17.50;;
74344;SDS011;62776;50.518;6.732;2022-08-19T09:18:47;18.65;;;16.70;;
74344;SDS011;62776;50.518;6.732;2022-08-19T09:21:39;21.13;;;18.00;;
74344;SDS011;62776;50.518;6.732;2022-08-19T09:24:25;21.15;;;18.17;;
74344;SDS011;62776;50.518;6.732;2022-08-19T09:27:11;22.80;;;20.45;;
74344;SDS011;62776;50.518;6.732;2022-08-19T09:29:57;20.42;;;17.88;;
74344;SDS011;62776;50.518;6.732;2022-08-19T09:32:44;17.83;;;15.95;;
74344;SDS011;62776;50.518;6.732;2022-08-19T09:35:30;21.25;;;19.25;;
74344;SDS011;62776;50.518;6.732;2022-08-19T09:38:18;18.05;;;16.25;;
74344;SDS011;62776;50.518;6.732;2022-08-19T09:41:09;27.95;;;18.02;;
74344;SDS011;62776;50.518;6.732;2022-08-19T09:43:58;20.25;;;18.17;;
74344;SDS011;62776;50.518;6.732;2022-08-19T09:46:44;19.35;;;17.23;;
74344;SDS011;62776;50.518;6.732;2022-08-19T09:49:32;19.15;;;17.25;;
74344;SDS011;62776;50.518;6.732;2022-08-19T09:52:18;20.08;;;17.70;;
74344;SDS011;62776;50.518;6.732;2022-08-19T09:55:05;19.65;;;17.65;;
74344;SDS011;62776;50.518;6.732;2022-08-19T09:57:53;19.55;;;17.50;;
74344;SDS011;62776;50.518;6.732;2022-08-19T10:00:39;19.65;;;17.70;;
74344;SDS011;62776;50.518;6.732;2022-08-19T10:03:26;18.10;;;16.33;;
74344;SDS011;62776;50.518;6.732;2022-08-19T10:06:13;18.65;;;15.68;;
74344;SDS011;62776;50.518;6.732;2022-08-19T10:08:59;18.15;;;16.02;;
74344;SDS011;62776;50.518;6.732;2022-08-19T10:11:46;16.08;;;14.45;;
74344;SDS011;62776;50.518;6.732;2022-08-19T10:14:33;15.38;;;13.95;;
74344;SDS011;62776;50.518;6.732;2022-08-19T10:17:20;13.38;;;12.07;;
74344;SDS011;62776;50.518;6.732;2022-08-19T10:20:06;13.05;;;11.95;;
74344;SDS011;62776;50.518;6.732;2022-08-19T10:22:52;13.23;;;11.82;;
74344;SDS011;62776;50.518;6.732;2022-08-19T10:25:39;13.25;;;11.93;;
74344;SDS011;62776;50.518;6.732;2022-08-19T10:28:25;13.70;;;12.25;;
74344;SDS011;62776;50.518;6.732;2022-08-19T10:31:16;13.48;;;12.07;;
74344;SDS011;62776;50.518;6.732;2022-08-19T10:34:13;13.60;;;12.30;;
74344;SDS011;62776;50.518;6.732;2022-08-19T10:36:59;11.10;;;9.85;;
74344;SDS011;62776;50.518;6.732;2022-08-19T10:39:46;12.85;;;11.10;;
74344;SDS011;62776;50.518;6.732;2022-08-19T10:42:35;11.88;;;10.57;;
74344;SDS011;62776;50.518;6.732;2022-08-19T10:45:22;12.45;;;10.35;;
74344;SDS011;62776;50.518;6.732;2022-08-19T10:48:10;9.63;;;8.63;;
74344;SDS011;62776;50.518;6.732;2022-08-19T10:50:57;11.45;;;9.68;;
74344;SDS011;62776;50.518;6.732;2022-08-19T10:54:06;16.40;;;13.65;;
74344;SDS011;62776;50.518;6.732;2022-08-19T10:56:52;16.67;;;15.13;;
74344;SDS011;62776;50.518;6.732;2022-08-19T10:59:38;15.35;;;13.73;;
74344;SDS011;62776;50.518;6.732;2022-08-19T11:02:25;16.27;;;14.52;;
74344;SDS011;62776;50.518;6.732;2022-08-19T11:05:11;14.85;;;13.32;;
74344;SDS011;62776;50.518;6.732;2022-08-19T11:07:59;16.55;;;15.00;;
74344;SDS011;62776;50.518;6.732;2022-08-19T11:10:45;14.35;;;12.85;;
74344;SDS011;62776;50.518;6.732;2022-08-19T11:13:32;14.70;;;13.27;;
74344;SDS011;62776;50.518;6.732;2022-08-19T11:16:23;13.65;;;12.25;;
74344;SDS011;62776;50.518;6.732;2022-08-19T11:19:15;13.98;;;12.45;;
74344;SDS011;62776;50.518;6.732;2022-08-19T11:22:03;13.90;;;12.43;;
74344;SDS011;62776;50.518;6.732;2022-08-19T11:24:54;16.70;;;13.27;;
74344;SDS011;62776;50.518;6.732;2022-08-19T11:27:40;13.63;;;12.27;;
74344;SDS011;62776;50.518;6.732;2022-08-19T11:30:28;11.82;;;10.65;;
74344;SDS011;62776;50.518;6.732;2022-08-19T11:33:14;12.30;;;11.10;;
74344;SDS011;62776;50.518;6.732;2022-08-19T11:36:00;13.80;;;12.50;;
74344;SDS011;62776;50.518;6.732;2022-08-19T11:38:48;14.88;;;13.32;;
74344;SDS011;62776;50.518;6.732;2022-08-19T11:41:34;15.80;;;14.20;;
74344;SDS011;62776;50.518;6.732;2022-08-19T11:44:21;13.25;;;11.90;;
74344;SDS011;62776;50.518;6.732;2022-08-19T11:47:07;13.00;;;11.70;;
74344;SDS011;62776;50.518;6.732;2022-08-19T11:49:53;12.63;;;11.40;;
74344;SDS011;62776;50.518;6.732;2022-08-19T11:52:39;13.45;;;11.98;;
74344;SDS011;62776;50.518;6.732;2022-08-19T11:55:25;14.45;;;12.20;;
74344;SDS011;62776;50.518;6.732;2022-08-19T11:58:15;12.25;;;10.95;;
74344;SDS011;62776;50.518;6.732;2022-08-19T12:01:04;14.00;;;10.75;;
74344;SDS011;62776;50.518;6.732;2022-08-19T12:03:56;12.70;;;11.52;;
74344;SDS011;62776;50.518;6.732;2022-08-19T12:06:42;14.07;;;12.68;;
74344;SDS011;62776;50.518;6.732;2022-08-19T12:09:28;14.15;;;12.75;;
74344;SDS011;62776;50.518;6.732;2022-08-19T12:12:14;14.55;;;13.05;;
74344;SDS011;62776;50.518;6.732;2022-08-19T12:15:01;14.43;;;12.77;;
74344;SDS011;62776;50.518;6.732;2022-08-19T12:17:47;13.60;;;12.30;;
74344;SDS011;62776;50.518;6.732;2022-08-19T12:20:37;16.50;;;13.93;;
74344;SDS011;62776;50.518;6.732;2022-08-19T12:23:24;12.50;;;11.32;;
74344;SDS011;62776;50.518;6.732;2022-08-19T12:26:11;14.15;;;12.77;;
74344;SDS011;62776;50.518;6.732;2022-08-19T12:28:57;14.57;;;13.15;;
74344;SDS011;62776;50.518;6.732;2022-08-19T12:31:44;14.00;;;12.57;;
74344;SDS011;62776;50.518;6.732;2022-08-19T12:34:31;14.55;;;12.68;;
74344;SDS011;62776;50.518;6.732;2022-08-19T12:37:17;14.13;;;12.77;;
74344;SDS011;62776;50.518;6.732;2022-08-19T12:40:03;13.55;;;12.27;;
74344;SDS011;62776;50.518;6.732;2022-08-19T12:42:50;13.05;;;11.75;;
74344;SDS011;62776;50.518;6.732;2022-08-19T12:45:36;13.43;;;12.02;;
74344;SDS011;62776;50.518;6.732;2022-08-19T12:48:22;14.50;;;11.93;;
74344;SDS011;62776;50.518;6.732;2022-08-19T12:51:10;11.98;;;10.88;;
74344;SDS011;62776;50.518;6.732;2022-08-19T12:53:58;10.63;;;9.52;;
74344;SDS011;62776;50.518;6.732;2022-08-19T12:59:45;9.02;;;8.15;;
74344;SDS011;62776;50.518;6.732;2022-08-19T13:02:31;10.00;;;9.13;;
74344;SDS011;62776;50.518;6.732;2022-08-19T13:05:19;9.43;;;8.50;;
74344;SDS011;62776;50.518;6.732;2022-08-19T13:08:07;10.27;;;9.23;;
74344;SDS011;62776;50.518;6.732;2022-08-19T13:10:53;9.80;;;8.90;;
74344;SDS011;62776;50.518;6.732;2022-08-19T13:13:41;8.77;;;7.97;;
74344;SDS011;62776;50.518;6.732;2022-08-19T13:16:27;8.82;;;8.02;;
74344;SDS011;62776;50.518;6.732;2022-08-19T13:19:14;9.05;;;8.15;;
74344;SDS011;62776;50.518;6.732;2022-08-19T13:22:00;9.90;;;8.10;;
74344;SDS011;62776;50.518;6.732;2022-08-19T13:24:46;8.10;;;7.40;;
74344;SDS011;62776;50.518;6.732;2022-08-19T13:27:33;8.35;;;7.28;;
74344;SDS011;62776;50.518;6.732;2022-08-19T13:30:20;7.80;;;7.10;;
74344;SDS011;62776;50.518;6.732;2022-08-19T13:33:25;10.68;;;7.32;;
74344;SDS011;62776;50.518;6.732;2022-08-19T13:36:11;9.27;;;7.32;;
74344;SDS011;62776;50.518;6.732;2022-08-19T13:38:57;8.25;;;7.53;;
74344;SDS011;62776;50.518;6.732;2022-08-19T13:41:44;9.63;;;7.72;;
74344;SDS011;62776;50.518;6.732;2022-08-19T13:44:34;8.90;;;7.80;;
74344;SDS011;62776;50.518;6.732;2022-08-19T13:47:20;6.90;;;6.22;;
74344;SDS011;62776;50.518;6.732;2022-08-19T13:50:06;8.73;;;5.90;;
74344;SDS011;62776;50.518;6.732;2022-08-19T13:52:57;8.13;;;6.28;;
74344;SDS011;62776;50.518;6.732;2022-08-19T13:55:44;7.50;;;6.80;;
74344;SDS011;62776;50.518;6.732;2022-08-19T13:58:30;6.72;;;6.13;;
74344;SDS011;62776;50.518;6.732;2022-08-19T14:01:23;7.20;;;6.13;;
74344;SDS011;62776;50.518;6.732;2022-08-19T14:04:11;7.03;;;6.25;;
74344;SDS011;62776;50.518;6.732;2022-08-19T14:06:57;8.88;;;6.22;;
74344;SDS011;62776;50.518;6.732;2022-08-19T14:09:43;5.95;;;5.35;;
74344;SDS011;62776;50.518;6.732;2022-08-19T14:12:29;7.22;;;6.32;;
74344;SDS011;62776;50.518;6.732;2022-08-19T14:15:16;6.90;;;6.20;;
74344;SDS011;62776;50.518;6.732;2022-08-19T14:18:03;8.32;;;5.97;;
74344;SDS011;62776;50.518;6.732;2022-08-19T14:20:49;8.73;;;5.80;;
74344;SDS011;62776;50.518;6.732;2022-08-19T14:23:35;9.35;;;6.50;;
74344;SDS011;62776;50.518;6.732;2022-08-19T14:26:21;6.25;;;5.53;;
74344;SDS011;62776;50.518;6.732;2022-08-19T14:29:08;6.53;;;5.60;;
74344;SDS011;62776;50.518;6.732;2022-08-19T14:31:54;6.55;;;5.95;;
74344;SDS011;62776;50.518;6.732;2022-08-19T14:34:43;7.22;;;5.90;;
74344;SDS011;62776;50.518;6.732;2022-08-19T14:37:30;8.98;;;5.47;;
74344;SDS011;62776;50.518;6.732;2022-08-19T14:40:18;6.38;;;5.18;;
74344;SDS011;62776;50.518;6.732;2022-08-19T14:43:07;5.38;;;4.88;;
74344;SDS011;62776;50.518;6.732;2022-08-19T14:45:53;5.40;;;4.90;;
74344;SDS011;62776;50.518;6.732;2022-08-19T14:48:42;7.90;;;4.50;;
74344;SDS011;62776;50.518;6.732;2022-08-19T14:51:28;5.90;;;4.50;;
74344;SDS011;62776;50.518;6.732;2022-08-19T14:54:14;8.43;;;4.20;;
74344;SDS011;62776;50.518;6.732;2022-08-19T14:57:00;6.55;;;4.43;;
74344;SDS011;62776;50.518;6.732;2022-08-19T14:59:47;4.50;;;4.10;;
74344;SDS011;62776;50.518;6.732;2022-08-19T15:02:14;3.92;;;3.30;;
74344;SDS011;62776;50.518;6.732;2022-08-19T15:05:01;4.13;;;3.38;;
74344;SDS011;62776;50.518;6.732;2022-08-19T15:07:47;5.60;;;3.42;;
74344;SDS011;62776;50.518;6.732;2022-08-19T15:10:33;4.45;;;2.53;;
74344;SDS011;62776;50.518;6.732;2022-08-19T15:13:19;7.07;;;2.50;;
74344;SDS011;62776;50.518;6.732;2022-08-19T15:16:06;8.13;;;2.00;;
74344;SDS011;62776;50.518;6.732;2022-08-19T15:18:54;2.80;;;2.50;;
74344;SDS011;62776;50.518;6.732;2022-08-19T15:21:42;3.97;;;2.17;;
74344;SDS011;62776;50.518;6.732;2022-08-19T15:24:28;6.10;;;2.50;;
74344;SDS011;62776;50.518;6.732;2022-08-19T15:27:14;5.32;;;2.42;;
74344;SDS011;62776;50.518;6.732;2022-08-19T15:30:00;2.58;;;2.10;;
74344;SDS011;62776;50.518;6.732;2022-08-19T15:32:46;7.40;;;2.30;;
74344;SDS011;62776;50.518;6.732;2022-08-19T15:35:33;3.28;;;2.47;;
74344;SDS011;62776;50.518;6.732;2022-08-19T15:38:19;4.82;;;2.75;;
74344;SDS011;62776;50.518;6.732;2022-08-19T15:41:13;3.05;;;2.30;;
74344;SDS011;62776;50.518;6.732;2022-08-19T15:44:09;4.75;;;2.10;;
74344;SDS011;62776;50.518;6.732;2022-08-19T15:47:00;3.03;;;2.00;;
74344;SDS011;62776;50.518;6.732;2022-08-19T15:49:46;2.80;;;1.90;;
74344;SDS011;62776;50.518;6.732;2022-08-19T15:52:32;2.13;;;1.65;;
74344;SDS011;62776;50.518;6.732;2022-08-19T15:55:21;4.32;;;2.05;;
74344;SDS011;62776;50.518;6.732;2022-08-19T15:58:11;9.15;;;2.78;;
74344;SDS011;62776;50.518;6.732;2022-08-19T16:01:17;4.30;;;2.10;;
74344;SDS011;62776;50.518;6.732;2022-08-19T16:04:15;3.25;;;2.60;;
74344;SDS011;62776;50.518;6.732;2022-08-19T16:07:19;4.53;;;2.25;;
74344;SDS011;62776;50.518;6.732;2022-08-19T16:10:05;4.03;;;2.78;;
74344;SDS011;62776;50.518;6.732;2022-08-19T16:12:52;2.50;;;2.20;;
74344;SDS011;62776;50.518;6.732;2022-08-19T16:15:39;4.93;;;2.72;;
74344;SDS011;62776;50.518;6.732;2022-08-19T16:18:26;3.88;;;2.72;;
74344;SDS011;62776;50.518;6.732;2022-08-19T16:21:14;4.85;;;3.28;;
74344;SDS011;62776;50.518;6.732;2022-08-19T16:24:05;3.70;;;2.90;;
74344;SDS011;62776;50.518;6.732;2022-08-19T16:26:52;10.25;;;3.28;;
74344;SDS011;62776;50.518;6.732;2022-08-19T16:29:39;2.97;;;2.53;;
74344;SDS011;62776;50.518;6.732;2022-08-19T16:32:25;4.63;;;2.55;;
74344;SDS011;62776;50.518;6.732;2022-08-19T16:35:12;3.65;;;2.40;;
74344;SDS011;62776;50.518;6.732;2022-08-19T16:37:58;2.72;;;2.22;;